Time;durP1;ratioP1;P1;durP2;ratioP2;P2;SDS_P1;SDS_P2;PMS_P1;PMS_P2;Temp;Humidity;BMP_temperature;BMP_pressure;BME280_temperature;BME280_humidity;BME280_pressure;Samples;Min_cycle;Max_cycle;Signal;HPM_P1;HPM_P2
2022/03/10 00:00:11;;;;;;;16.03;10.33;;;0.20;54.50;;;-1.34;66.60;98832.22;5023403;28;20546;-75
2022/03/10 00:02:39;;;;;;;14.60;9.53;;;0.20;54.50;;;-1.41;66.22;98846.09;5022557;28;21288;-75
2022/03/10 00:05:10;;;;;;;13.63;10.37;;;0.20;54.60;;;-1.72;66.93;98850.13;5036853;28;20486;-75
2022/03/10 00:07:37;;;;;;;14.40;10.20;;;0.00;54.80;;;-1.87;68.12;98851.28;5024334;28;20444;-75
2022/03/10 00:10:06;;;;;;;19.87;9.70;;;-0.30;55.50;;;-2.02;68.91;98838.22;5026226;28;20975;-76
2022/03/10 00:12:34;;;;;;;14.50;9.90;;;-0.40;56.40;;;-1.91;68.53;98860.41;5025769;28;20561;-76
2022/03/10 00:15:02;;;;;;;15.40;9.53;;;-0.40;56.80;;;-1.95;68.79;98849.22;5025937;28;20458;-75
2022/03/10 00:17:32;;;;;;;14.20;10.17;;;-0.40;57.10;;;-1.92;68.55;98859.56;5024996;28;20466;-75
2022/03/10 00:19:59;;;;;;;13.80;10.10;;;-0.40;57.40;;;-1.87;68.22;98857.41;5028669;28;20545;-74
2022/03/10 00:22:26;;;;;;;13.10;10.00;;;-0.40;57.50;;;-1.62;67.34;98847.59;5025311;28;20541;-75
2022/03/10 00:24:53;;;;;;;13.20;9.60;;;-0.30;57.50;;;-1.63;67.49;98853.00;5023468;28;21041;-76
2022/03/10 00:27:20;;;;;;;18.43;10.20;;;-0.20;57.10;;;-1.64;67.86;98846.03;5023135;28;20517;-74
2022/03/10 00:29:47;;;;;;;17.33;10.17;;;-0.10;57.30;;;-1.69;67.23;98848.19;5021841;28;20485;-75
2022/03/10 00:32:14;;;;;;;15.17;9.17;;;-0.10;57.40;;;-1.95;68.24;98848.34;5023204;28;20458;-76
2022/03/10 00:34:42;;;;;;;12.17;9.20;;;-0.30;57.10;;;-2.02;68.55;98859.41;5021856;28;20604;-76
2022/03/10 00:37:09;;;;;;;12.03;9.30;;;-0.40;57.70;;;-2.16;69.68;98864.88;5025149;28;21177;-76
2022/03/10 00:39:36;;;;;;;11.97;8.40;;;-0.60;58.10;;;-2.23;69.79;98866.28;5026143;28;20466;-76
2022/03/10 00:42:04;;;;;;;10.90;8.27;;;-0.60;58.60;;;-2.26;69.68;98858.56;5023703;28;20560;-76
2022/03/10 00:44:31;;;;;;;13.03;9.20;;;-0.70;58.90;;;-2.26;70.09;98854.13;5026280;28;20540;-75
2022/03/10 00:46:58;;;;;;;12.10;9.10;;;-0.70;59.30;;;-2.42;70.35;98857.06;5025755;28;20458;-75
2022/03/10 00:49:25;;;;;;;13.30;9.00;;;-0.80;59.70;;;-2.38;70.36;98866.44;5025970;28;20451;-76
2022/03/10 00:51:54;;;;;;;11.43;9.30;;;-0.80;60.10;;;-2.20;70.10;98851.03;5027391;28;20459;-75
2022/03/10 00:54:21;;;;;;;19.43;9.90;;;-0.80;60.60;;;-2.10;69.45;98858.28;5019948;28;20508;-76
2022/03/10 00:56:48;;;;;;;12.80;9.93;;;-0.70;60.40;;;-2.29;69.85;98851.69;5023543;28;20950;-76
2022/03/10 00:59:14;;;;;;;13.43;9.67;;;-0.70;60.30;;;-2.31;70.27;98857.13;5022046;28;20459;-76
2022/03/10 01:01:42;;;;;;;15.90;10.43;;;-0.80;60.90;;;-2.17;69.58;98855.25;5025332;28;20499;-76
2022/03/10 01:04:09;;;;;;;14.40;9.77;;;-0.70;60.70;;;-2.13;69.91;98851.41;5019501;28;20530;-76
2022/03/10 01:06:35;;;;;;;13.53;9.50;;;-0.70;61.00;;;-2.03;69.53;98851.56;5025782;28;20545;-76
2022/03/10 01:09:04;;;;;;;12.03;9.33;;;-0.50;60.60;;;-2.13;69.68;98851.41;5024534;28;20450;-75
2022/03/10 01:11:31;;;;;;;14.47;9.60;;;-0.50;60.40;;;-2.17;70.04;98852.59;5025501;28;20463;-75
2022/03/10 01:13:58;;;;;;;12.27;8.87;;;-0.60;60.70;;;-2.16;69.46;98849.00;5024336;28;20508;-75
2022/03/10 01:16:25;;;;;;;17.00;10.00;;;-0.60;60.60;;;-2.21;70.34;98864.38;5023652;28;20469;-78
2022/03/10 01:18:52;;;;;;;13.13;10.20;;;-0.70;61.00;;;-2.21;69.95;98856.41;5025260;28;20530;-76
2022/03/10 01:21:19;;;;;;;13.60;9.90;;;-0.70;61.40;;;-2.36;70.52;98855.75;5025757;28;20496;-78
2022/03/10 01:23:46;;;;;;;13.93;8.83;;;-0.80;61.10;;;-2.42;70.59;98863.19;5022824;28;20502;-76
2022/03/10 01:26:14;;;;;;;14.97;9.20;;;-0.80;61.50;;;-2.28;70.79;98861.31;5022910;28;20490;-74
2022/03/10 01:28:41;;;;;;;13.50;9.53;;;-0.80;62.10;;;-2.30;70.79;98866.75;5022764;28;20488;-77
2022/03/10 01:31:08;;;;;;;14.47;9.00;;;-0.80;61.90;;;-2.20;70.30;98866.06;5022978;28;20533;-76
2022/03/10 01:33:35;;;;;;;14.30;9.50;;;-0.70;61.90;;;-2.32;69.86;98860.72;5023897;28;21152;-75
2022/03/10 01:36:02;;;;;;;11.73;8.93;;;-0.70;61.50;;;-2.26;70.30;98853.28;5020930;28;20458;-75
2022/03/10 01:38:29;;;;;;;13.23;9.80;;;-0.70;61.70;;;-2.19;69.95;98862.47;5024080;28;20450;-75
2022/03/10 01:40:56;;;;;;;12.63;8.77;;;-0.70;61.70;;;-2.22;70.41;98867.97;5024810;28;20553;-76
2022/03/10 01:43:24;;;;;;;13.27;8.47;;;-0.60;61.60;;;-2.22;70.03;98863.53;5027122;28;20546;-75
2022/03/10 01:45:51;;;;;;;13.30;9.17;;;-0.70;61.70;;;-2.24;70.08;98864.59;5039429;28;20466;-76
2022/03/10 01:48:18;;;;;;;13.50;9.27;;;-0.60;61.80;;;-2.43;70.66;98865.94;5024343;28;20454;-76
2022/03/10 01:50:45;;;;;;;12.03;8.50;;;-0.80;61.60;;;-2.71;71.47;98849.41;5026894;28;20485;-76
2022/03/10 01:53:12;;;;;;;12.83;8.70;;;-0.90;62.10;;;-2.68;71.86;98878.28;5022396;28;20542;-75
2022/03/10 01:55:40;;;;;;;10.63;8.47;;;-1.10;62.90;;;-2.93;72.95;98869.47;5027397;28;21013;-76
2022/03/10 01:58:07;;;;;;;14.13;9.50;;;-1.20;63.70;;;-2.97;73.00;98864.50;5026376;28;20544;-77
2022/03/10 02:00:36;;;;;;;11.83;8.80;;;-1.30;64.50;;;-2.77;72.96;98869.22;5027156;28;20473;-76
2022/03/10 02:03:02;;;;;;;11.43;9.03;;;-1.30;65.40;;;-2.89;73.17;98868.28;5026005;28;20485;-75
2022/03/10 02:05:31;;;;;;;12.83;8.80;;;-1.30;65.20;;;-2.96;73.45;98868.84;5022130;28;20552;-74
2022/03/10 02:10:43;;;;;;;10.60;8.27;;;-1.30;65.60;;;-2.94;73.00;98862.50;5024137;28;20638;-75
2022/03/10 02:13:10;;;;;;;11.73;8.53;;;-1.40;65.70;;;-2.85;72.67;98863.66;5021801;28;20525;-76
2022/03/10 02:18:23;;;;;;;12.20;8.57;;;-1.40;66.00;;;-2.95;73.21;98866.09;5020814;28;20458;-74
2022/03/10 02:20:50;;;;;;;10.13;8.03;;;-1.40;66.60;;;-2.85;72.62;98872.41;5027655;28;20458;-74
2022/03/10 02:23:19;;;;;;;12.43;7.87;;;-1.30;66.20;;;-2.95;72.78;98866.09;5025090;28;20540;-76
2022/03/10 02:25:46;;;;;;;11.30;8.57;;;-1.40;65.80;;;-3.11;73.58;98868.09;5027470;28;20458;-75
2022/03/10 02:28:13;;;;;;;10.83;7.63;;;-1.50;66.30;;;-2.86;72.66;98868.06;5024356;28;21274;-74
2022/03/10 02:30:41;;;;;;;10.90;7.57;;;-1.40;66.60;;;-3.03;72.72;98871.94;5027973;28;20538;-74
2022/03/10 02:33:09;;;;;;;12.40;8.47;;;-1.40;66.30;;;-2.88;72.51;98875.28;5026179;28;20458;-75
2022/03/10 02:35:36;;;;;;;10.80;8.00;;;-1.40;66.60;;;-2.67;71.96;98879.97;5025083;28;20511;-75
2022/03/10 02:38:03;;;;;;;14.20;8.83;;;-1.20;66.30;;;-2.71;71.86;98871.44;5023328;28;20859;-76
2022/03/10 02:40:31;;;;;;;12.00;8.90;;;-1.10;65.60;;;-2.72;71.95;98879.47;5023815;28;20462;-76
2022/03/10 02:42:58;;;;;;;13.47;8.10;;;-1.20;65.60;;;-2.83;72.15;98874.97;5026171;28;20559;-75
2022/03/10 02:45:26;;;;;;;12.77;8.67;;;-1.20;65.40;;;-2.75;71.86;98883.16;5024921;28;20565;-76
2022/03/10 02:47:53;;;;;;;12.37;8.47;;;-1.10;65.60;;;-2.75;71.76;98887.63;5025453;28;20494;-75
2022/03/10 02:50:20;;;;;;;11.17;7.80;;;-1.10;65.30;;;-2.86;72.49;98891.88;5020637;28;20470;-75
2022/03/10 02:52:47;;;;;;;12.03;7.97;;;-1.30;65.70;;;-2.97;72.02;98852.09;5023751;28;20463;-75
2022/03/10 02:55:15;;;;;;;10.33;6.70;;;-1.20;65.70;;;-2.68;71.46;98894.16;5022171;28;20462;-77
2022/03/10 02:57:43;;;;;;;12.53;8.80;;;-1.10;65.40;;;-2.62;71.48;98892.88;5022052;28;20545;-75
2022/03/10 03:00:10;;;;;;;11.07;7.30;;;-1.00;65.20;;;-2.68;71.67;98902.09;5026787;28;20838;-74
2022/03/10 03:02:38;;;;;;;10.40;7.37;;;-1.00;65.00;;;-2.67;71.59;98901.16;5027249;28;20519;-75
2022/03/10 03:05:06;;;;;;;12.57;8.30;;;-1.10;64.80;;;-2.80;71.90;98900.34;5034596;28;20548;-73
2022/03/10 03:07:34;;;;;;;10.87;8.30;;;-1.10;64.90;;;-2.86;72.29;98899.81;5025808;28;20482;-74
2022/03/10 03:10:01;;;;;;;11.63;8.00;;;-1.20;65.30;;;-3.07;72.82;98907.44;5025983;28;20451;-75
2022/03/10 03:12:28;;;;;;;9.13;7.13;;;-1.40;65.50;;;-3.23;73.67;98905.03;5042015;28;20462;-75
2022/03/10 03:14:57;;;;;;;10.23;7.60;;;-1.50;66.20;;;-3.40;74.38;98913.28;5024741;28;20556;-76
2022/03/10 03:17:24;;;;;;;11.20;8.47;;;-1.70;67.00;;;-3.77;75.27;98871.69;5027867;28;20570;-76
2022/03/10 03:19:52;;;;;;;11.27;7.97;;;-1.80;67.90;;;-3.34;74.89;98924.25;5045277;28;20996;-76
2022/03/10 03:22:19;;;;;;;11.07;7.97;;;-1.80;68.60;;;-3.19;73.96;98919.72;5039781;28;20512;-75
2022/03/10 03:24:46;;;;;;;11.50;9.00;;;-1.70;68.50;;;-3.26;74.19;98923.75;5028122;28;20514;-75
2022/03/10 03:27:13;;;;;;;16.83;9.60;;;-1.70;68.00;;;-3.32;74.33;98921.53;5026930;28;21060;-75
2022/03/10 03:29:41;;;;;;;13.40;8.50;;;-1.70;68.20;;;-3.35;74.67;98917.28;5029070;28;20446;-75
2022/03/10 03:32:09;;;;;;;10.23;8.20;;;-1.80;69.00;;;-3.05;73.83;98915.28;5022684;28;20748;-76
2022/03/10 03:34:36;;;;;;;10.80;8.30;;;-1.60;68.50;;;-3.07;73.59;98911.91;5027304;28;20578;-75
2022/03/10 03:37:04;;;;;;;15.27;8.60;;;-1.50;68.20;;;-3.24;73.95;98900.72;5023956;28;20515;-76
2022/03/10 03:39:32;;;;;;;11.23;8.40;;;-1.50;68.00;;;-3.19;74.11;98911.78;5025074;28;21016;-76
2022/03/10 03:41:59;;;;;;;13.87;8.40;;;-1.50;68.30;;;-3.33;74.73;98914.53;5040014;28;20558;-76
2022/03/10 03:44:26;;;;;;;12.97;8.23;;;-1.60;68.50;;;-3.11;74.35;98910.41;5025017;28;20518;-76
2022/03/10 03:46:53;;;;;;;11.33;7.77;;;-1.50;68.90;;;-3.22;74.39;98917.31;5024346;28;20587;-76
2022/03/10 03:49:21;;;;;;;10.37;8.10;;;-1.60;68.70;;;-3.30;75.07;98925.75;5022074;28;20452;-76
2022/03/10 03:51:48;;;;;;;12.00;8.83;;;-1.70;69.10;;;-3.37;75.22;98915.72;5025190;28;20516;-75
2022/03/10 03:54:16;;;;;;;11.47;8.43;;;-1.70;69.60;;;-3.51;75.72;98916.63;5020949;28;20931;-74
2022/03/10 03:56:43;;;;;;;13.50;8.57;;;-1.80;69.90;;;-3.53;76.11;98929.97;5041117;28;20485;-75
2022/03/10 03:59:10;;;;;;;12.60;8.40;;;-1.90;70.30;;;-3.57;76.37;98928.44;5025316;28;20454;-74
2022/03/10 04:01:37;;;;;;;13.00;9.37;;;-1.90;70.70;;;-3.55;76.54;98921.28;5040399;28;20473;-74
2022/03/10 04:04:04;;;;;;;12.10;8.40;;;-2.00;71.60;;;-3.33;75.33;98917.19;5021333;28;20550;-75
2022/03/10 04:06:32;;;;;;;14.27;8.40;;;-1.80;70.70;;;-3.22;74.76;98927.88;5023105;28;20578;-74
2022/03/10 04:08:59;;;;;;;10.57;7.50;;;-1.70;70.40;;;-3.30;75.23;98936.34;5022407;28;20490;-74
2022/03/10 04:11:26;;;;;;;12.17;8.60;;;-1.70;70.00;;;-3.31;75.06;98933.78;5032258;28;20873;-76
2022/03/10 04:13:53;;;;;;;13.17;8.43;;;-1.70;69.80;;;-3.51;76.00;98949.19;5023676;28;20556;-75
2022/03/10 04:16:21;;;;;;;10.07;8.63;;;-1.80;70.40;;;-3.24;75.12;98935.06;5027342;28;20554;-74
2022/03/10 04:18:48;;;;;;;13.90;9.63;;;-1.70;70.80;;;-3.24;74.87;98944.78;5029670;28;20457;-75
2022/03/10 04:21:15;;;;;;;11.03;8.43;;;-1.70;70.00;;;-3.01;74.25;98940.56;5026350;28;20524;-74
2022/03/10 04:23:45;;;;;;;10.80;8.80;;;-1.50;70.10;;;-2.93;73.98;98935.59;5028119;28;20536;-74
2022/03/10 04:26:12;;;;;;;13.93;10.13;;;-1.40;69.50;;;-2.96;73.98;98941.06;5025498;28;21116;-75
2022/03/10 04:28:39;;;;;;;12.10;8.27;;;-1.40;69.10;;;-3.19;74.64;98932.09;5025476;28;20516;-75
2022/03/10 04:31:06;;;;;;;13.97;9.20;;;-1.50;69.10;;;-3.29;74.99;98926.59;5025873;28;20474;-76
2022/03/10 04:33:33;;;;;;;14.03;8.90;;;-1.60;69.90;;;-3.30;75.32;98919.59;5019553;28;20487;-75
2022/03/10 04:36:00;;;;;;;12.57;9.43;;;-1.70;70.10;;;-3.39;75.81;98933.47;5028104;28;20896;-76
2022/03/10 04:38:27;;;;;;;9.83;8.00;;;-1.70;70.20;;;-3.36;75.60;98938.53;5021898;28;20496;-76
2022/03/10 04:40:58;;;;;;;14.83;9.93;;;-1.80;70.70;;;-3.49;75.92;98941.16;5023538;28;20504;-77
2022/03/10 04:43:25;;;;;;;12.67;8.80;;;-1.80;70.90;;;-3.60;76.45;98926.03;5025611;28;20470;-76
2022/03/10 04:45:52;;;;;;;10.77;8.17;;;-1.90;71.30;;;-3.44;76.46;98929.31;5025846;28;20598;-77
2022/03/10 04:48:20;;;;;;;18.40;8.37;;;-1.90;71.90;;;-3.48;76.24;98942.88;5020118;28;20549;-77
2022/03/10 04:50:47;;;;;;;23.07;9.90;;;-1.90;71.50;;;-3.18;75.51;98923.22;5026422;28;20493;-76
2022/03/10 04:53:14;;;;;;;14.60;8.23;;;-1.80;72.00;;;-3.38;75.77;98940.44;5023234;28;20451;-75
2022/03/10 04:55:41;;;;;;;17.00;9.53;;;-1.70;71.00;;;-3.55;76.81;98942.44;5017975;28;20517;-75
2022/03/10 04:58:11;;;;;;;17.20;10.20;;;-1.90;71.60;;;-3.63;77.25;98945.59;5018344;28;20555;-76
2022/03/10 05:00:38;;;;;;;13.80;9.67;;;-2.00;72.00;;;-3.64;77.23;98940.41;5019780;28;20469;-74
2022/03/10 05:03:05;;;;;;;16.70;9.60;;;-2.00;72.50;;;-3.70;77.46;98944.28;5025673;28;20541;-74
2022/03/10 05:05:32;;;;;;;15.67;9.80;;;-2.00;72.80;;;-3.55;77.02;98953.00;5021177;28;20573;-74
2022/03/10 05:07:59;;;;;;;16.23;10.93;;;-2.00;72.90;;;-3.58;77.14;98947.91;5023941;28;20549;-75
2022/03/10 05:10:26;;;;;;;13.97;9.80;;;-2.00;72.90;;;-3.53;76.83;98959.03;5019873;28;20512;-74
2022/03/10 05:12:56;;;;;;;11.67;8.73;;;-2.00;72.90;;;-3.28;76.08;98944.13;5021783;28;20549;-74
2022/03/10 05:15:28;;;;;;;16.00;9.77;;;-1.80;72.90;;;-3.04;75.11;98951.34;5021183;28;20464;-75
2022/03/10 05:17:56;;;;;;;14.93;9.40;;;-1.60;71.70;;;-3.03;74.61;98945.09;5021282;28;20570;-75
2022/03/10 05:20:24;;;;;;;16.30;9.57;;;-1.50;70.70;;;-3.08;74.86;98941.94;5023364;28;20456;-75
2022/03/10 05:22:53;;;;;;;15.00;8.97;;;-1.40;70.40;;;-3.18;75.31;98939.09;5040798;28;20461;-75
2022/03/10 05:25:23;;;;;;;13.37;9.93;;;-1.50;70.70;;;-3.17;74.92;98946.91;5024464;28;20570;-76
2022/03/10 05:27:51;;;;;;;15.03;9.17;;;-1.50;70.60;;;-3.35;76.05;98950.81;5026954;28;20537;-73
2022/03/10 05:30:20;;;;;;;12.00;8.80;;;-1.60;70.90;;;-3.47;76.48;98955.97;5030321;28;20997;-73
2022/03/10 05:32:48;;;;;;;18.37;9.83;;;-1.80;71.50;;;-3.53;76.84;98940.53;5027532;28;20516;-73
2022/03/10 05:35:16;;;;;;;13.40;9.10;;;-1.90;72.20;;;-3.60;76.69;98947.16;5029186;28;20553;-72
2022/03/10 05:37:45;;;;;;;15.30;9.43;;;-1.90;72.40;;;-3.58;77.27;98942.63;4999708;28;20589;-74
2022/03/10 05:40:15;;;;;;;11.43;9.50;;;-1.90;72.90;;;-3.52;77.20;98942.22;5025809;28;20496;-80
2022/03/10 05:42:44;;;;;;;13.00;8.87;;;-2.00;73.30;;;-3.26;75.74;98942.25;5025409;28;20487;-77
2022/03/10 05:45:13;;;;;;;15.43;10.80;;;-1.80;72.50;;;-3.18;75.49;98955.78;5025460;28;20549;-79
2022/03/10 05:47:41;;;;;;;13.07;8.70;;;-1.70;71.90;;;-3.23;75.89;98949.97;5027817;28;20484;-77
2022/03/10 05:50:11;;;;;;;11.30;8.77;;;-1.70;72.20;;;-3.14;75.45;98953.78;5020054;28;20459;-79
2022/03/10 05:52:38;;;;;;;18.97;10.03;;;-1.60;71.80;;;-3.10;75.46;98967.66;5027135;28;20548;-78
2022/03/10 05:55:06;;;;;;;17.17;10.50;;;-1.60;71.70;;;-3.11;75.51;98960.66;5025692;28;20451;-77
2022/03/10 05:57:34;;;;;;;13.10;9.60;;;-1.60;71.20;;;-2.99;75.20;98954.50;5027817;28;20478;-78
2022/03/10 06:00:01;;;;;;;15.27;9.63;;;-1.50;71.20;;;-3.17;75.48;98954.00;5027448;28;20498;-74
2022/03/10 06:02:28;;;;;;;15.87;9.60;;;-1.50;71.00;;;-3.18;74.70;98902.09;5023783;28;20465;-78
2022/03/10 06:05:00;;;;;;;15.70;9.33;;;-1.40;71.00;;;-2.86;74.71;98954.53;5024527;28;20482;-76
2022/03/10 06:07:29;;;;;;;14.63;9.40;;;-1.30;71.00;;;-2.73;74.04;98947.44;5024744;28;20945;-77
2022/03/10 06:09:56;;;;;;;12.77;9.10;;;-1.20;70.40;;;-2.75;74.26;98948.47;5025290;28;20455;-76
2022/03/10 06:12:25;;;;;;;12.90;9.57;;;-1.20;70.50;;;-2.64;74.08;98956.53;5020473;28;20463;-76
2022/03/10 06:14:54;;;;;;;12.20;9.40;;;-1.10;70.50;;;-2.50;73.35;98949.38;5040781;28;20910;-77
2022/03/10 06:17:21;;;;;;;15.60;9.40;;;-1.00;70.00;;;-2.54;73.80;98947.91;5023629;28;20462;-75
2022/03/10 06:19:48;;;;;;;21.00;11.20;;;-1.00;69.70;;;-2.17;75.21;98955.88;5026299;28;20494;-77
2022/03/10 06:22:17;;;;;;;29.30;10.93;;;-0.70;73.00;;;-2.13;72.49;98952.03;5022774;28;20455;-75
2022/03/10 06:24:46;;;;;;;16.13;9.57;;;-0.60;69.60;;;-2.11;71.95;98955.44;5026820;28;20462;-77
2022/03/10 06:27:13;;;;;;;11.67;9.00;;;-0.60;68.10;;;-2.14;71.41;98953.84;5034297;28;20458;-75
2022/03/10 06:29:41;;;;;;;14.93;10.40;;;-0.60;67.80;;;-2.09;71.17;98953.50;5021884;28;20493;-76
2022/03/10 06:32:08;;;;;;;16.20;10.40;;;-0.50;67.60;;;-2.13;71.23;98946.75;5024685;28;20512;-75
2022/03/10 06:34:37;;;;;;;20.03;11.37;;;-0.50;67.30;;;-2.03;71.22;98955.72;5022098;28;20454;-74
2022/03/10 06:37:04;;;;;;;18.90;10.00;;;-0.50;67.30;;;-2.13;71.67;98946.75;5023453;28;20473;-75
2022/03/10 06:39:32;;;;;;;13.13;9.43;;;-0.50;67.30;;;-1.96;71.15;98964.06;5039310;28;20452;-75
2022/03/10 06:42:00;;;;;;;13.73;9.50;;;-0.40;67.20;;;-2.00;71.62;98966.09;5021014;28;21146;-75
2022/03/10 06:44:27;;;;;;;14.40;9.60;;;-0.40;67.20;;;-1.88;71.19;98960.84;5021943;28;20466;-74
2022/03/10 06:46:54;;;;;;;11.63;9.10;;;-0.30;67.10;;;-1.76;70.91;98965.22;5023465;28;21052;-77
2022/03/10 06:49:21;;;;;;;16.27;10.60;;;-0.20;66.80;;;-1.66;70.66;98964.56;5025142;28;20938;-75
2022/03/10 06:51:49;;;;;;;16.73;9.77;;;-0.10;66.40;;;-1.53;69.96;98975.09;5025390;28;20669;-72
2022/03/10 06:54:16;;;;;;;17.23;10.90;;;0.00;66.20;;;-1.62;69.34;98963.38;5023043;28;21007;-74
2022/03/10 06:56:43;;;;;;;13.87;9.67;;;0.00;65.90;;;-1.50;69.78;98975.72;5023615;28;20540;-75
2022/03/10 06:59:12;;;;;;;13.93;9.60;;;0.10;65.70;;;-1.36;69.61;98982.66;5024910;28;20872;-78
2022/03/10 07:01:39;;;;;;;18.83;10.70;;;0.20;65.50;;;-1.39;69.92;98982.03;5024758;28;20948;-75
2022/03/10 07:04:06;;;;;;;13.73;9.90;;;0.20;65.60;;;-1.26;68.73;98966.03;5021549;28;20488;-78
2022/03/10 07:06:33;;;;;;;17.30;11.43;;;0.30;65.30;;;-1.21;69.08;98980.63;5024333;28;21071;-75
2022/03/10 07:09:00;;;;;;;16.23;11.10;;;0.30;65.00;;;-1.10;68.92;98977.16;5026595;28;20465;-75
2022/03/10 07:11:27;;;;;;;31.70;11.93;;;0.40;64.70;;;-0.93;67.92;98978.50;5024454;28;20494;-76
2022/03/10 07:13:54;;;;;;;15.63;10.27;;;0.60;64.50;;;-0.88;68.44;98981.66;5020334;28;20985;-76
2022/03/10 07:16:23;;;;;;;17.00;10.90;;;0.70;64.50;;;-0.74;67.49;98977.09;5026427;28;20455;-76
2022/03/10 07:18:51;;;;;;;16.73;9.40;;;0.70;64.30;;;-0.66;67.12;98976.47;5024075;28;20493;-77
2022/03/10 07:21:18;;;;;;;16.45;12.43;;;0.80;63.80;;;-0.37;66.38;98989.28;5025675;28;20450;-73
2022/03/10 07:23:46;;;;;;;14.73;11.03;;;1.00;63.50;;;-0.30;66.20;98986.00;5028115;28;20194;-75
2022/03/10 07:26:13;;;;;;;14.43;10.27;;;1.10;62.90;;;-0.11;65.67;98983.72;5032859;28;20464;-77
2022/03/10 07:28:40;;;;;;;17.93;10.90;;;1.30;63.00;;;0.02;65.42;98996.84;5018448;28;20477;-74
2022/03/10 07:31:07;;;;;;;17.30;10.00;;;1.40;62.30;;;0.22;64.13;98985.41;5026103;28;20639;-72
2022/03/10 07:33:36;;;;;;;13.20;10.23;;;1.60;61.30;;;0.20;64.58;98987.38;5026569;28;20635;-73
2022/03/10 07:36:05;;;;;;;13.60;10.00;;;1.70;61.00;;;0.47;64.05;98994.06;5020328;28;20461;-74
2022/03/10 07:38:32;;;;;;;18.70;10.27;;;1.80;60.80;;;0.55;63.52;98988.97;5025040;28;20543;-73
2022/03/10 07:40:59;;;;;;;15.70;10.30;;;2.00;60.70;;;0.62;63.44;98991.09;5025093;28;21055;-74
2022/03/10 07:43:26;;;;;;;14.17;10.20;;;2.00;60.40;;;0.87;62.33;98991.72;5023094;28;20549;-74
2022/03/10 07:45:53;;;;;;;17.73;10.60;;;2.20;59.80;;;0.89;61.75;98993.25;5020148;28;20477;-74
2022/03/10 07:48:21;;;;;;;17.03;10.40;;;2.30;59.10;;;0.93;61.83;98994.69;5041464;28;20533;-72
2022/03/10 07:50:49;;;;;;;15.27;10.53;;;2.40;58.80;;;1.03;61.09;98999.22;5026649;28;20498;-72
2022/03/10 07:53:19;;;;;;;14.27;10.33;;;2.50;58.10;;;1.07;61.03;98996.19;5028107;28;20474;-72
2022/03/10 07:55:46;;;;;;;13.20;9.33;;;2.60;58.10;;;1.38;60.48;98998.88;5023619;28;20467;-76
2022/03/10 07:58:13;;;;;;;11.97;10.10;;;2.70;57.70;;;1.59;59.78;98992.66;5035693;28;20461;-76
2022/03/10 08:00:41;;;;;;;12.23;9.47;;;2.90;57.10;;;1.68;59.47;98994.53;5028882;28;20804;-73
2022/03/10 08:03:08;;;;;;;14.00;11.10;;;3.00;56.60;;;1.72;59.29;98986.25;5016845;28;20554;-73
2022/03/10 08:05:36;;;;;;;13.37;9.73;;;3.20;56.40;;;1.87;58.53;98992.91;5026646;28;20468;-74
2022/03/10 08:08:05;;;;;;;16.30;10.63;;;3.30;55.80;;;1.92;58.34;98977.34;5036603;28;20516;-72
2022/03/10 08:10:32;;;;;;;12.70;10.23;;;3.30;55.70;;;2.06;58.85;98970.78;5023492;28;20484;-74
2022/03/10 08:12:59;;;;;;;18.30;10.70;;;3.50;55.90;;;2.49;56.55;98982.06;5016226;28;20610;-73
2022/03/10 08:15:28;;;;;;;14.10;9.70;;;3.70;54.70;;;2.68;56.14;98980.38;5024592;28;20479;-72
2022/03/10 08:17:55;;;;;;;12.83;10.40;;;3.90;54.30;;;2.41;56.58;98945.41;5021814;28;20462;-73
2022/03/10 08:20:23;;;;;;;11.90;10.23;;;4.00;54.30;;;2.76;56.25;98985.84;5024954;28;20555;-72
2022/03/10 08:22:50;;;;;;;15.37;10.57;;;4.10;53.80;;;2.79;56.25;98972.22;5022509;28;23487;-72
2022/03/10 08:25:19;;;;;;;14.93;10.47;;;4.20;53.70;;;3.00;55.39;98963.22;5031145;28;20547;-74
2022/03/10 08:27:47;;;;;;;15.20;11.67;;;4.30;53.40;;;3.15;55.21;98966.25;5021113;28;20461;-79
2022/03/10 08:30:15;;;;;;;15.63;10.90;;;4.40;53.00;;;3.25;54.45;98974.25;5020633;28;20565;-77
2022/03/10 08:32:43;;;;;;;12.97;10.10;;;4.50;52.80;;;3.44;54.05;98975.19;5021587;28;20940;-77
2022/03/10 08:35:11;;;;;;;19.90;10.90;;;4.70;52.50;;;3.63;53.86;98969.75;5019157;28;20608;-76
2022/03/10 08:37:38;;;;;;;18.87;11.20;;;4.80;52.20;;;3.75;53.62;98969.56;5022756;28;20470;-76
2022/03/10 08:40:07;;;;;;;15.07;10.20;;;5.00;52.00;;;3.84;53.60;98982.03;5020549;28;20472;-77
2022/03/10 08:42:35;;;;;;;16.50;10.37;;;5.20;51.60;;;3.85;53.52;98983.72;5023428;28;20546;-76
2022/03/10 08:45:03;;;;;;;15.83;11.40;;;5.20;51.40;;;3.99;53.51;98974.38;5018278;28;20927;-77
2022/03/10 08:47:32;;;;;;;13.20;10.23;;;5.30;51.50;;;4.12;53.40;98974.00;5022549;28;20539;-75
2022/03/10 08:49:59;;;;;;;11.20;10.10;;;5.40;51.30;;;4.43;52.41;98973.66;5023971;28;20493;-76
2022/03/10 08:52:26;;;;;;;13.43;11.23;;;5.60;50.90;;;4.45;51.88;98971.66;5021878;28;20486;-76
2022/03/10 08:54:53;;;;;;;15.50;11.40;;;5.70;50.60;;;4.58;52.17;98976.66;5020295;28;20956;-77
2022/03/10 08:57:20;;;;;;;13.23;11.10;;;5.80;50.40;;;4.64;50.87;98972.53;5019965;28;20454;-77
2022/03/10 08:59:48;;;;;;;14.27;11.40;;;5.90;50.00;;;4.78;51.42;98974.66;5025191;28;20516;-76
2022/03/10 09:02:16;;;;;;;12.63;10.13;;;6.00;50.00;;;4.87;50.43;98972.03;5019657;28;20928;-76
2022/03/10 09:04:43;;;;;;;16.00;11.17;;;6.10;50.00;;;4.98;50.31;98974.47;5023379;28;20466;-77
2022/03/10 09:07:10;;;;;;;17.30;11.13;;;6.20;49.20;;;5.15;49.41;98971.91;5023697;28;20473;-76
2022/03/10 09:09:37;;;;;;;13.73;10.30;;;6.30;48.90;;;5.39;49.41;98966.72;5024236;28;20462;-76
2022/03/10 09:12:05;;;;;;;13.07;11.10;;;6.50;48.70;;;5.34;49.11;98958.28;5015284;28;20525;-77
2022/03/10 09:14:32;;;;;;;12.20;9.47;;;6.60;48.50;;;5.47;49.29;98957.00;5022128;28;20549;-76
2022/03/10 09:17:01;;;;;;;18.63;11.00;;;6.70;48.50;;;5.75;48.12;98954.13;5019733;28;20456;-76
2022/03/10 09:19:28;;;;;;;11.73;10.50;;;6.90;48.00;;;5.86;48.12;98948.50;5025306;28;20464;-76
2022/03/10 09:21:55;;;;;;;14.13;10.27;;;7.00;47.70;;;5.98;47.51;98948.16;5020523;28;20441;-76
2022/03/10 09:24:22;;;;;;;11.23;10.00;;;7.10;47.50;;;6.04;46.93;98952.94;5020279;28;20545;-77
2022/03/10 09:26:49;;;;;;;12.73;10.67;;;7.30;47.20;;;6.15;46.78;98946.41;5021766;28;20478;-76
2022/03/10 09:29:16;;;;;;;16.90;9.57;;;7.40;47.00;;;6.29;46.34;98943.09;5020392;28;20945;-77
2022/03/10 09:31:43;;;;;;;16.20;10.50;;;7.50;46.50;;;6.37;46.68;98943.13;5020766;28;20510;-78
2022/03/10 09:34:11;;;;;;;12.83;10.17;;;7.60;46.40;;;6.52;45.96;98945.97;5023203;28;20552;-76
2022/03/10 09:36:38;;;;;;;17.17;11.97;;;7.70;46.50;;;6.61;45.67;98943.31;5019738;28;20545;-75
2022/03/10 09:39:05;;;;;;;14.57;10.90;;;7.80;46.10;;;6.63;45.42;98942.13;5021988;28;20565;-76
2022/03/10 09:41:33;;;;;;;11.60;10.07;;;7.80;45.70;;;6.61;45.49;98935.25;5021707;28;20458;-78
2022/03/10 09:44:00;;;;;;;14.83;11.00;;;7.80;45.80;;;6.82;45.12;98939.28;5016845;28;20601;-76
2022/03/10 09:46:27;;;;;;;13.63;10.87;;;7.90;45.90;;;7.06;44.68;98936.56;5022378;28;20537;-77
2022/03/10 09:48:55;;;;;;;11.93;9.37;;;8.20;45.60;;;7.15;44.67;98937.41;5023498;28;20453;-76
2022/03/10 09:51:23;;;;;;;13.60;10.70;;;8.30;45.50;;;7.42;43.59;98927.22;5027169;28;20454;-77
2022/03/10 09:53:50;;;;;;;14.43;10.70;;;8.50;45.00;;;7.46;43.53;98922.34;5026037;28;20496;-75
2022/03/10 09:56:19;;;;;;;14.37;11.30;;;8.60;44.70;;;7.40;44.10;98925.75;5019155;28;20455;-78
2022/03/10 09:58:47;;;;;;;11.87;10.57;;;8.60;45.00;;;7.57;42.99;98919.28;5019944;28;20468;-78
2022/03/10 10:01:13;;;;;;;13.03;10.33;;;8.70;44.30;;;7.54;42.45;98914.25;5026922;28;20451;-78
2022/03/10 10:03:40;;;;;;;13.17;10.13;;;8.80;43.70;;;7.80;42.35;98911.28;5019766;28;20454;-77
2022/03/10 10:06:07;;;;;;;11.57;9.87;;;8.90;43.80;;;7.76;42.27;98906.44;5022029;28;20523;-77
2022/03/10 10:08:38;;;;;;;15.80;10.23;;;9.00;43.70;;;8.04;41.55;98908.66;5024543;28;20465;-76
2022/03/10 10:11:06;;;;;;;13.47;9.60;;;9.10;43.30;;;8.20;40.85;98900.47;5021950;28;20521;-77
2022/03/10 10:13:37;;;;;;;18.00;9.50;;;9.30;43.00;;;8.28;40.99;98898.75;5026773;28;20458;-77
2022/03/10 10:16:06;;;;;;;10.03;7.93;;;9.40;42.90;;;8.12;39.62;98865.53;5023184;28;21013;-77
2022/03/10 10:18:36;;;;;;;11.13;8.20;;;9.50;42.00;;;8.33;39.66;98899.03;5024529;28;20489;-77
2022/03/10 10:21:06;;;;;;;8.23;7.40;;;9.50;41.70;;;8.40;38.94;98910.75;5025939;28;21402;-76